気象予報士の航空気象 2009年05月

*All archives   *Admin

2009.05.31 (Sun)

ゲリラ豪雨に想う事

 私は「ゲリラ豪雨」という言葉を好きではない。

ゲリラという言葉がそもそもいい気がしない。

 予想できない、突然発生という意味なのだが・・・


雨



 もともとマスコミによって、煽られて蔓延した言葉であって、定義もなく秩序もない。

頻繁に使用されることによって、視聴者の心に恐怖を植え付ける言葉で、気象用語ではない!!!


急流



 ゲリラ豪雨に対して、「集中豪雨」という言葉がある。


 集中豪雨は、主に梅雨前線などに寒気や暖気移流が重なって起こる豪雨のことを指しますが、それに対し、ゲリラ豪雨はヒートアイランド現象やビル風などの局地風による積乱雲の発生発達によって、狭い範囲で1時間100ミリ以上の雨を指すと思われます。なにせ、定義もなく気象用語でもないので。。。


 1時間に50ミリもの雨が降ると、都市では局地的な洪水が起こる可能性があります。


 アスファルトやコンクリートで固められた都市では、その降水が下水を通り、護岸工事された河川に集中してしまいます。


神戸市都賀川



 2008年に12月にはある通信教育の流行語対象に「ゲリラ豪雨」が選ばれました。受賞対象がある天気予報会社であったことには失望しました。


 言葉の印象による恐怖によって、注意喚起をうながることは効果的な方法ですが、原因・対策を重点的に周知することよりも、自己の利益と商売のニオイを感じる点で、失望を感じたのです。



積乱雲



 川釣りや登山経験者にとって、夏の積乱雲に対する鉄砲水の知識は必須です。


 今の気象予報技術では、予報は実用的ではありません。では、先人の知恵に頼るしかないのです。

 「ゲリラ豪雨」を安易に使用することよりも、1年培ったであろう報道の仕方があれば、私はマスコミやその他関連会社に対する気持ちを変えることになるでしょう。


とにかく、腹が立つ。


雷



ブログランキングに参加しています。
にほんブログ村 環境ブログ 天気・気象学へ
にほんブログ村
応援クリックをおねがします。



梅雨ウキウキ 通勤OKのレインシューズ
 
ワインボトル型折り畳み傘 福岡市の百貨店、雑貨店 色、機能…雨具多彩に

ゲリラ豪雨にも対応

5月30日15時7分配信 西日本新聞


 間もなく迎える梅雨の時期を前に、福岡市・天神の百貨店や雑貨店では雨やカビの対策商品の品ぞろえが豊富になっている。例年以上にカラフルな色やおしゃれなデザインが増えている一方で、近年多発している「ゲリラ豪雨」への対策商品や環境に配慮したグッズも増えているようだ。


 青空が一転真っ黒な雲に覆われ、局地的に短時間の大雨となるゲリラ豪雨。昨年、各地に大きな被害を出した。雨傘を用意する間もなく、ずぶぬれになる人も多かった。

 この豪雨に対応するために登場したのが、従来の「晴雨」兼用傘の改良型。従来の晴雨兼用傘は日傘に撥(はっ)水(すい)加工を施しただけで大雨には適していなかった。改良型は通常の雨傘にUV(紫外線)加工を施し、突然の大雨に十分対応しながらも、雨が上がったときには紫外線をカットする日傘機能が付いている。

 今年はさらにデザインや機能が改良され、大雨には雨傘並みに対応しながら、日傘のようにおしゃれで「梅雨商戦注目の商品」と岩田屋の仕入れ係の吉松浩二さん(43)。

 また「夕方から雨」という天気予報に合わせて、晴れ間の通勤時からでも利用できるレインシューズも人気。岩田屋ではファッション性にも優れたブーツ型やパンプス型などが店頭に並ぶ。6月上旬からはレインシューズを昨年の2倍以上の120種類以上に増やし、傘も売り場を拡大して展開する。

 

 男性の傘選びの傾向にも変化が出ている。天神ロフト販売促進担当の牛嶋典子さん(42)が「男性にも人気」と薦めるのはワインボトルの形をした晴雨兼用折り畳み傘。水色やオレンジなど10種類ほどの色柄を選べる。黒や紺色を好んでいた男性客からも「ユニークな形で、カラフルな色も抵抗がない」と好評だ。

 

 湿度が高くなる梅雨は室内のカビや臭いも厄介だ。ここ数年、化学物質を使わず、臭いやカビの原因物質を分解する微生物を使ったカビ対策グッズが売り上げを伸ばしているという。

 天神の雑貨館・インキューブでは今年初めて特設コーナーを設置。消臭剤など十数種類を扱う。微生物の一種で納豆菌の仲間を使いカビの増殖を防ぐ。営業推進担当の大谷奈美子さん(28)は「自宅でも利用しているが、気になっていたお風呂のカビが出なくなった」。

 家電製品店では除湿器の売れ行きが好調。天神のベスト電器福岡本店では除湿や衣類乾燥などを1年を通して効率的に行える除湿器など20種類そろえた。エネルギーの使用料も従来の製品の2分の1という。

 自分に合ったグッズを選び、梅雨と仲良く付き合いたいものだ。 

=2009/05/30付 西日本新聞夕刊=



以下、アフィリエイトサイトです。





スポンサーサイト
21:25  |  時事  |  TB(0)  |  CM(0)  |  EDIT  |  Top↑

2009.05.30 (Sat)

麦秋

麦畑1



 近所の麦がいつのまにか色づいていました。



ビール


 ビールを想像して、あれっこの景色って秋だよねって、思ってしまいました。



いろいろ調べてみると、いろんなことがわかりました。


麦秋

 麦は初冬に蒔かれ越冬し、この時期に実りの時期を迎えます。

米と麦の二毛作で裏作として麦がよく育てられています。


 麦秋は「ばくしゅう」、「むぎあき」と呼び、夏の季語になります。

麦秋に対し、「米秋」という言葉があります。


 秋には収穫の意味もあるようです。

「秋」の漢字の成り立ちも調べてみたところ、稲・穀物を表す「禾」へんと火ですが、昔は「禾亀」で、禾+亀でした。

 亀甲に「火」を近づける古代の占いで用いる「亀」が秋に捕獲されたことと、穀物の収穫の時期でもあるため、「禾」と組み合わせたようです。

 読みでは、収穫に関係して「飽き」という説と、「あからむ」(熟)ことからきているとする説などがあります。



ブログランキングに参加しています。
にほんブログ村 環境ブログ 天気・気象学へ
にほんブログ村
応援クリックをおねがします。


以下、アフィリエイトサイトです。





21:32  |  時事  |  TB(0)  |  CM(0)  |  EDIT  |  Top↑

2009.05.29 (Fri)

寒冷渦

 昨日から、日本上空に寒冷渦がどっかりと居座っています。

そのため、日本の天気は、陸も海、そして空も大荒れです。

航空無線を聞いて、天気図を解析して、後々UPしたいと考えています。

あまり見る機会のない気圧配置でのFBJPは、いろいろと興味を引くものがあります。

お楽しみに。


ブログランキングに参加しています。
にほんブログ村 環境ブログ 天気・気象学へ
にほんブログ村
応援クリックをおねがします。


以下、アフィリエイトサイトです。

明日はお客様感謝デー
インターネットで特別価格奉仕品があるイオン ネットショッピング








23:19  |  時事  |  TB(0)  |  CM(0)  |  EDIT  |  Top↑

2009.05.28 (Thu)

24日 雷雲モード解析

 今日は大きな寒冷渦が日本の上空に居座っているため、関東から西のほとんどの高度で、大きな揺れが発生していました。

 天気図を集め、後日、解析とともにUPします。


低気圧が四国の南海上に=東海も暴風高波に警戒を
-気象庁

5月28日9時21分配信 時事通信

 気象庁は28日午前、発達中の低気圧が四国の南海上にある影響で、西日本の太平洋側では風が非常に強くなっている所があると発表した。東海地方も風が強まる見込みで、同庁は暴風と高波に警戒を呼び掛けた。

 西日本太平洋側と東海の予想最大風速は、陸上で18~20メートル、海上で22~25メートル。予想される波の高さは最大6メートル。低気圧の動きが遅いため、28日夕方まで続くという。 



さて、


 24日の雷雲が通過したときのエマグラムと羽田と成田のMETARを列挙します。

羽田空港

240600Z 11006KT 9999 -SHRA FEW010 SCT020 BKN/// 19/16 Q1004 RMK 1CU010 3CU020 A2965

240630Z 07008KT 9999 -SHRA FEW008 SCT010 BKN110 19/16 Q1004 RMK 1ST008 3CU010 5AC110 A2965

240700Z 10006KT 9999 FEW010 SCT070 BKN110 19/16 Q1004 RMK 1CU010 3AC070 6AC110 A2965

240730Z 08004KT 9999 FEW009 SCT015 BKN100 19/16 Q1004 RMK 1ST009 3CU015 6AC100 A2965

240800Z 11006KT 9999 FEW009 SCT015 BKN120 20/16 Q1004 RMK 1ST009 3CU015 6AC120 A2965

240830Z 12005KT 9999 FEW012 BKN100 19/16 Q1004 RMK 2CU012 5AC100 A2966

240900Z 11004KT 9999 FEW010 BKN130 19/16 Q1004 RMK 2CU010 6AC130 A2966

240930Z 11006KT 9999 FEW010 FEW030CB BKN100 19/16 Q1004 RMK 2CU010 1CB030 6AC100 A2967 CB 20KM N STNR

241000Z 12005KT 9999 FEW010 SCT080 BKN130 19/15 Q1005 RMK 1CU010 3AC080 6AC130 A2968

241100Z 13004KT 100V170 9999 FEW015 FEW030CB BKN120 19/16 Q1005 RMK 1CU015 1CB030 6AC120 A2969 CB 30KM N STNR

241130Z 16003KT 090V210 9999 FEW015 FEW030CB BKN100 19/15 Q1005 RMK 1CU015 1CB030 7AC100 A2970 LIGHTNING 30KM NW STNR

241200Z 14005KT 9999 FEW015 FEW030CB SCT050 BKN100 19/16 Q1005 RMK 1CU015 1CB030 3SC050 7AC100 A2970 LIGHTNING 30KM NW STNR

241230Z 14005KT 9999 -SHRA FEW015 FEW030CB SCT040 BKN070 18/16 Q1006 RMK 2CU015 1CB030 4SC040 7AC070 A2971 LIGHTNING 30KM NW MOV SE

241300Z 10004KT 9999 -SHRA FEW010 SCT025 FEW030CB BKN040 19/16 Q1006 RMK 1CU010 3CU025 1CB030 5SC040 A2971 LIGHTNING 5KM NW-N MOV SE

241315Z 07004KT 9999 -TSRA FEW010 SCT020 FEW030CB BKN040 19/16 Q1006 RMK 1CU010 3CU020 1CB030 5SC040 A2972 FBL TS 5KM NW-N MOV SE

241325Z 06004KT 360V100 6000 R34L/1400VP1800D R22/P1800N R34R/P1800N TSRA FEW010 SCT020 FEW030CB BKN040 19/16 Q1006 RMK 1CU010 3CU020 1CB030 5SC040 A2972 FBL TS 5KM W-NW MOV SE

241330Z 36009KT 6000 R34L/1300VP1800N R22/P1800N R34R/P1800N TSRA FEW010 BKN015 FEW030CB BKN035 18/15 Q1006 RMK 1CU010 5CU015 1CB030 7SC035 A2972 FBL TS 5KM W-NW MOV SE

241334Z 36011KT 6000 R34L/1300VP1800U R22/P1800N R34R/P1800N TSRA FEW010 BKN015 FEW030CB BKN035 17/15 Q1006 RMK 1CU010 5CU015 1CB030 7SC035 A2972 FBL TS 5KM W-NW MOV SE

241342Z 34011KT 5000 TSRA BR FEW008 BKN012 FEW030CB 17/14 Q1006 RMK 1ST008 6CU012 1CB030 A2973 MOD TS OHD MOV SE

241400Z 35010KT 6000 TSRA FEW008 BKN015 FEW030CB 17/15 Q1006 RMK 1ST008 6CU015 1CB030 A2972 MOD TS OHD MOV SE

241408Z 01011KT 6000 SHRA FEW007 BKN015 17/15 Q1006 RETS RMK 1ST007 7CU015 A2972

241430Z 36007KT 6000 SHRA FEW005 SCT015 BKN035 17/15 Q1006 RETS RMK 1ST005 4CU015 6CU035 A2973

241500Z 01006KT 6000 SHRA FEW006 SCT015 BKN035 17/15 Q1006 RMK 1ST006 3CU015 6CU035 A2972



成田空港

240600Z 06004KT 020V150 8000 -SHRA FEW006 SCT030 BKN070 18/16 Q1004 NOSIG RMK 2ST006 4CU030 7AC070 A2966

240630Z 07005KT 360V150 8000 FEW007 SCT012 BKN100 18/17 Q1003 BECMG 04006KT

240700Z VRB03KT 8000 -SHRA FEW008 SCT025 BKN100 18/16 Q1004 BECMG 08006KT RMK 1ST008 3CU025 7AC100 A2966

240730Z 14004KT 080V170 9000 FEW008 BKN100 18/16 Q1004 NOSIG RMK 1ST008 6AC100 A2965

240800Z VRB02KT 9999 FEW008 BKN110 19/16 Q1004 BECMG 08006KT RMK 1ST008 6AC110 A2965

240830Z 12003KT 9999 FEW011 BKN110 19/16 Q1004 NOSIG RMK 2CU011 5AC110 A2966

240900Z 09003KT 9999 FEW010 SCT110 18/16 Q1004 NOSIG RMK 1CU010 3AC110 A2966

240930Z 11004KT 060V140 9999 FEW010 SCT110 18/16 Q1004 NOSIG RMK 2CU010 3AC110 A2967

241000Z 15003KT 8000 FEW010 SCT110 17/16 Q1005 NOSIG RMK 2CU010 3AC110 A2968

241030Z 15003KT 7000 FEW010 SCT080 17/16 Q1005 NOSIG RMK 2CU010 3AC080 A2969

241100Z 15004KT 6000 BR FEW010 SCT080 BKN120 16/16 Q1005 NOSIG RMK 1CU010 3AC080 5AC120 A2969

241130Z 13003KT 6000 BR FEW010 BKN080 16/16 Q1005 NOSIG RMK 1CU010 6AC080 A2970

241200Z 11004KT 7000 BR FEW010 BKN080 17/16 Q1006 NOSIG RMK 1CU010 7AC080 A2971

241300Z VRB01KT 9999 FEW030CB BKN080 16/16 Q1006 NOSIG RMK 1CB030 7AC080 A2971 LIGHTNING 50KM W STNR

241330Z VRB02KT 9999 FEW020 FEW030CB BKN080 16/16 Q1006 TEMPO 4000 TSRA BR RMK 1CU020 1CB030 7AC080 A2972 LIGHTNING 50KM W MOV SE

241400Z 24001KT 9999 FEW020 FEW030CB BKN080 16/15 Q1006 TEMPO 4000 TSRA BR

241430Z 24002KT 9999 FEW020 FEW030CB BKN100 16/16 Q1006 TEMPO 4000 TSRA BR RMK 2CU020 1CB030 7AC100 A2972 CB 40KM W MOV SE AND 50KM NE MOV S

241500Z VRB01KT 8000 -SHRA FEW025 FEW030CB SCT040 BKN100 17/16 Q1006 TEMPO 4000 TSRA BR

241530Z 29003KT 5000 -SHRA BR FEW010 FEW030CB BKN030 BKN080 17/16 Q1006 TEMPO 4000 TSRA BR RMK 1CU010 1CB030 5CU030 7AC080 A2972 CB 20KM N MOV S

241545Z 32014KT 5000 SHRA BR FEW003 SCT025 FEW030CB BKN035 16/15 Q1006 RMK 1ST003 3CU025 1CB030 5CU035 A2972 CB 15KM N MOV S

241600Z 34010KT 5000 SHRA BR FEW003 SCT020 BKN035 15/14 Q1006 TEMPO 4000 TSRA BR

241630Z 01015KT 4500 SHRA BR FEW003 SCT008 BKN035 15/14 Q1006 NOSIG RMK 1ST003 3ST008 5CU035 A2973

241700Z 02011KT 4500 SHRA BR FEW005 BKN035 15/14 Q1006 NOSIG RMK 1ST005 7CU035 A2972



続いて館野のエマグラム

Showalter index は -1.2です。

エマグラム館野24MAY0912Z




ブログランキングに参加しています。
にほんブログ村 環境ブログ 天気・気象学へ
にほんブログ村
応援クリックをおねがします。


以下、アフィリエイトサイトです。









21:22  |  気象・天気  |  TB(0)  |  CM(0)  |  EDIT  |  Top↑

2009.05.27 (Wed)

明日は天気悪し

 崩れるようですね。

上空の寒気と地上の前線帯との組み合わせで、局地的でもあり、断続的な天候の悪化が考えられます。

 解析と技術の保持には欠かせない題材ではあるのですが、被害が出ないことを祈ります。



低気圧北上、暴風と高波に警戒を
        =東海と西日本太平洋側-気象庁

5月27日18時26分配信 時事通信


 発達中の低気圧が沖縄の南東海上にあり、北東へ進んでいるため、気象庁は27日午後、東海地方と西日本の太平洋側では28日未明から夜の初めごろまで、暴風や高波に警戒が必要と発表した。低気圧は28日朝には四国沖に到達する見込み。

 東海と西日本太平洋側の予想最大風速は、陸上で18~20メートル、海上で20~25メートル。波の高さは6~7メートルと予想される。



ブログランキングに参加しています。
にほんブログ村 環境ブログ 天気・気象学へ
にほんブログ村
応援クリックをおねがします。


以下、アフィリエイトサイトです。









22:11  |  時事  |  TB(0)  |  CM(0)  |  EDIT  |  Top↑

2009.05.26 (Tue)

五月雨

 降水が少ないようですね。水資源も大事だ昔からよく言われることですが・・・


<少雨>西日本で 水などの管理に注意を呼びかけ
…気象庁

5月25日19時28分配信 毎日新聞


 気象庁は25日、西日本は5月に入ってから雨が少なく、今後も少なくとも1週間程度はまとまった雨の降る可能性が小さいとして、「西日本の少雨に関する全般気象情報」を出し、水や農作物の管理に注意を呼びかけた。今月1~24日の降水量の合計は、中国地方で平年の41%、四国地方では36%にとどまっているという。



 雨といえば、五月雨(さみだれ)。

しかし、この言葉、決して5月に使われることが正しいわけではありません。


 同様に五月晴れ(さつきばれ)。

この五月(さつき)は、皐月のことで、旧暦の5月を指します。


 夏の季語で、梅雨の時期の雨のことを「五月雨」、梅雨の合間の晴れを「五月晴れ」といいます。
「みだれ」の意味には、「水垂れ」や「乱れ」があり、激しく断続的に降る雨の様を指します。


 辞典によっては、五月晴れを「ごがつばれ」と読み、新暦の5月のカラッとした晴れをも指すようです。


ブログランキングに参加しています。
にほんブログ村 環境ブログ 天気・気象学へ
にほんブログ村
応援クリックをおねがします。


以下、アフィリエイトサイトです。






22:55  |  時事  |  TB(0)  |  CM(0)  |  EDIT  |  Top↑

2009.05.25 (Mon)

昨日の雷

 昨日の雷雲の通過は上空の寒気の通過が大きく影響しています。


昨晩の関東地方の雨雲レーダーRDR2030.jpg
RDR2100.jpg
RDR2130.jpg
RDR2200.jpg
RDR2230.jpg
RDR2330.jpg



 上空に寒気があり、低層に暖気と水分の補給があり、なんらかの影響で上昇流が発生すると雷雲は発生発達します。


積乱雲発達の要素

1.上空の寒気

2.暖気流入

3.水分の補給

4.上昇流




以下、24日午後9時の天気図をUPします。

ASAS24MAY0912Z.jpg
地上天気解析図 24日午後9時
30024MAY0912Z.jpg
300hPa高層天気図 24日午後9時
50024MAY0912Z.jpg
500hPa高層天気図 24日午後9時
70024MAY0912Z.jpg
700hPa高層天気図 24日午後9時
85024MAY0912Z.jpg
850hPa高層天気図 24日午後9時


明日へ続く。。。


ブログランキングに参加しています。
にほんブログ村 環境ブログ 天気・気象学へ
にほんブログ村
応援クリックをおねがします。


以下、アフィリエイトサイトです。






16:47  |  気象・天気  |  TB(0)  |  CM(0)  |  EDIT  |  Top↑

2009.05.24 (Sun)

雷雲モード

RDR2230.jpg


夜20時ごろ関東地方を雷雲が通過していきました。


下記は羽田のSPECIです。


RJTT 241325Z 06004KT 360V100
6000 R34L/1400VP1800D R22/P1800N R34R/P1800N
TSRA FEW010 SCT020 FEW030CB BKN040 19/16 Q1006
RMK 1CU010 3CU020 1CB030 5SC040 A2972 FBL TS 5KM W-NW MOV SE


RJTT・・・羽田空港

241325Z・・・24日22時25分
        イギリスの国際標準時に対し日本は9時間先に進んでいます。
        定時ではないので特別通報(SPECI)

06004KT 360V100・・・東北東の風2メートル 風変方向 北から東

6000・・・視程6km

R34L/1400VP1800D・・・
        滑走路視程 滑走路34L
        10分間の最小値が1400m 最大値が1800m以上計測器の範囲超え
        視程悪化傾向

R22/P1800N・・・滑走路視程 滑走路22
           1800m以上計測器の範囲超え 変化なし

R34R/P1800N・・・滑走路視程 滑走路34R
           1800m以上計測器の範囲超え 変化なし

TSRA・・・雷雨

FEW010・・・雲量1ないし2/8 雲底1000ft

SCT020・・・雲量3ないし4/8 雲底2000ft

FEW030CB・・・雲量1ないし2/8 雲底3000ft 積乱雲

BKN040・・・雲量5から7/8 雲低4000ft

19/16・・・気温19度 露天温度16度

Q1006・・・気圧1006hPa

RMK・・・国内特記事項

1CU010・・・雲量1/8の積雲が1000ft

3CU020・・・雲量3/8の積雲が2000ft

1CB030・・・雲量1/8の積乱雲が3000ft

5SC040・・・雲量5/8の層積雲4000ft

A2972・・・水銀圧29.72mmhg

FBL TS 5KM W-NW MOV SE・・・
              並みの雷 5km西から北西に存在し、南西へ移動


雷




ちょいと明日あたり解析してみます。



ブログランキングに参加しています。
にほんブログ村 環境ブログ 天気・気象学へ
にほんブログ村
応援クリックをおねがします。


以下、アフィリエイトサイトです。






23:18  |  気象・天気  |  TB(0)  |  CM(0)  |  EDIT  |  Top↑

2009.05.23 (Sat)

夏日・真夏日の定義

ビール


ビールがうまくなる季節の到来です。


真夏日の定義

 真夏日 tropical day とは日最高気温が30度以上になる日のことで、真夏の暑さを示す指標のひとつですし、初夏にあたる5月の最初の真夏日がいつになるのかも指標のひとつになっています。


 また、日最高気温が25度以上になる日を夏日 summer day と言い、夏の訪れの目安となります。


いずれもこれらの日数の統計値は夏の期間、暑さを示す気候値として用いられています。


 真夏日の平均日数は、那覇85日、東京50日、札幌10日くらいです。


ブログランキングに参加しています。
にほんブログ村 環境ブログ 天気・気象学へ
にほんブログ村
応援クリックをおねがします。


以下、アフィリエイトサイトです。






22:21  |  気象・天気  |  TB(0)  |  CM(0)  |  EDIT  |  Top↑

2009.05.22 (Fri)

小満

昨日21日は、小満(しょうまん)でした。


 二十四節気のひとつで例年5月21日ごろになり、この日から芒種までの期間にあたります。


太陽黄経が60度。


 暦便覧には「万物盈満(えいまん)すれば草木枝葉繁る」と記され、春に芽吹いた植物が次第に成長する頃で四月中です。


 麦畑が緑黄色に色づき始める。


麦畑


 沖縄では次の節気と合わせた小満芒種(すーまんぼーすー)という語が梅雨の意味で使われています。



小満の期間の七十二候は以下の通り。


初候

蚕起食桑        (かいこ おこって くわを くらう)
             蚕が桑を盛んに食べ始める(日本)

苦菜秀         (くさい ひいず)
             苦菜がよく茂る(中国)


次候

紅花栄         (こうか さかう)
             紅花が盛んに咲く(日本)

靡草死         (びそう かる)
             薺など田に生える草が枯れる(中国)


末候

麦秋至         (ばくしゅう いたる)
             麦が熟し麦秋となる(日本)

小暑至         (しょうしょ いたる)
             ようやく暑さが加わり始める(中国)


ブログランキングに参加しています。
にほんブログ村 環境ブログ 天気・気象学へ
にほんブログ村
応援クリックをおねがします。


以下、アフィリエイトサイトです。






20:29  |  二十四節気  |  TB(0)  |  CM(0)  |  EDIT  |  Top↑

2009.05.21 (Thu)

札幌で夏日

 今日は札幌や紋別など、北海道で夏日を迎えているようです。

ちょっと前にサクラが開花して、もう25度越えなんですね。


桜開花


 札幌の気象データを確認したら、5月14日の最高気温14度、最低気温 6度。15日には最高気温12度、最低気温 3度でした。

同じ5月1、2日には、稚内で最高気温 8度、最低気温 6度で、雪が降った場所もあるようです。


ブログランキングに参加しています。
にほんブログ村 環境ブログ 天気・気象学へ
にほんブログ村
応援クリックをおねがします。


以下、アフィリエイトサイトです。






22:44  |  時事  |  TB(0)  |  CM(0)  |  EDIT  |  Top↑

2009.05.20 (Wed)

真夏日は30度越え

 桑名で真夏日ですか。

 三重県桑名は木曽三川(揖斐・木曽・長良)に囲まれ、伊勢湾の内海にあり、愛知県名古屋の南西にあります。

 ハマグリが有名で、「その手は桑名の焼き蛤」(その手にはひっかからない)という言葉遊びがあるくらいです。

 濃尾平野は東・北・西の三方に山岳が存在し、夏の南風の際は名古屋の北、岐阜県多治見で40度近くまで、気温が上昇することで毎年ニュースになっています。



 桑名は近くに河川、海に近く、盆地でもありません。

なぜ、この時期に?こんなに気温が上がるんでしょうか???不思議です。


桑名市


石取祭りのリカちゃんなんてあるんだ。へぇー。(アフィリエイトです。)




.<最高気温>5月は桑名など14地点で更新

5月20日19時54分配信 毎日新聞



 高気圧に覆われた影響で20日は全国的に6月上旬から7月下旬並みの陽気となり、三重県桑名市で33.4度を記録するなど14観測地点で5月としての観測史上最高気温を更新した。


 気象庁によると、最高気温を更新したのは高知県四万十市の32.8度や愛知県岡崎市の31.8度など。

このほか群馬県高崎市で平年を10.7度上回る33.6度となるなど各地で30度以上の真夏日となり、東京都内でも練馬区で31.2度を記録した。

21日も東日本から北日本は晴れて気温が高くなるが、西日本は低気圧が近づく影響で雨となる地域が多い見込み。



真夏日:桑名で33.4度記録
 5月の気温としては観測史上最高 /三重


 高気圧に覆われて晴れ渡った20日、桑名市で5月としては1979年の観測開始以来、最も高い気温となる33・4度を記録するなど、各地で真夏日となった。


 各地の最高気温は▽津31・8度▽松阪31・7度▽伊勢31・1度▽伊賀30・8度▽四日市30・7度▽亀山30・6度。平年より4~10度高かった。

津地方気象台によると、21日から天気は下り坂で、気温は平年並みになるという。



ブログランキングに参加しています。
にほんブログ村 環境ブログ 天気・気象学へ
にほんブログ村
応援クリックをおねがします。


以下、アフィリエイトサイトです。






13:14  |  時事  |  TB(0)  |  CM(0)  |  EDIT  |  Top↑

2009.05.19 (Tue)

沖縄 梅雨いりDATA

 「つゆいり」とタイプすると、「梅雨入り」ではなく、「入梅」と変換されます。

下記は気象庁のDATAです。


沖縄入梅DATAその1
沖縄入梅DATAその2




ブログランキングに参加しています。
にほんブログ村 環境ブログ 天気・気象学へ
にほんブログ村
応援クリックをおねがします。


以下、アフィリエイトサイトです。






20:13  |  気象・天気  |  TB(0)  |  CM(0)  |  EDIT  |  Top↑

2009.05.18 (Mon)

沖縄 入梅

 やっぱり、梅雨にはいりましたね。

沖縄の梅雨明けの頃には、本州は梅雨の真っ只中なんでしょうね。

 地上天気の解析は、この季節、非常に難しいものです。

航空気象に至っては、さらにその何倍にも値するでしょう。



沖縄・奄美が梅雨入り=平年より8~10日遅れ-気象庁
5月18日10時18分配信 時事通信

 気象庁は18日、沖縄県と鹿児島県の奄美地方が梅雨入りしたとみられると発表した。沖縄の梅雨入りは平年より10日遅く、昨年より4日早い。奄美は平年より8日遅く、昨年より4日早い。沖縄気象台によると、梅雨の期間中の降水量は平年より「少ない」見込み。 


ブログランキングに参加しています。
にほんブログ村 環境ブログ 天気・気象学へ
にほんブログ村
応援クリックをおねがします。


以下、アフィリエイトサイトです。






18:32  |  時事  |  TB(0)  |  CM(0)  |  EDIT  |  Top↑

2009.05.17 (Sun)

温暖と寒冷の狭間

 今日はとても南風が強く、雨が激しく振ったり、家の中にいても風音にびっくりしたり、夕方に外に出てみると、低い黒いべったりとした雲、いわゆる乱層雲が、南よりの風に乗ってすごい速さで流れているのを見ました。


下図の天気図を見ると、南よりの強風に低い乱層雲にも納得がいきました。


ASAS17MAY0906Z.jpg
地上解析図 17日午後3時


ASAS17MAY0906Z拡大
地上解析図 17日午後3時 拡大図



羽田と成田は風にも泣かされていますね。


成田空港
170600Z 18013KT 9999 -SHRA FEW020 BKN040 19/16 Q1006
      WS R16R WS R16L BECMG 18017G29KT RMK 2CU020 7SC040
      A2971

午後3時 南風 小雨 気温19度 露点16度
      ウインドシアーあり 15メートルの強風予報



171400Z 20020G33KT 9999 FEW025 SCT120 22/18 Q0999 NOSIG

午後11時 南西風10メートル強風時17メートル 気温22度 露点18度




 なんと、成田では夜のほうが気温が高い。きっと明日は晴れるからかなり暑くなるのでは!?




羽田空港
170600Z 18020KT 9999 FEW020 BKN026 20/16 Q1005 RMK 2CU020 7SC026
      A2969

午後3時 南風10メートル 曇り 気温20度 露点16度 雲底高度800メートル




171100Z 20024G34KT 9999 FEW006 SCT009 BKN010 22/19 Q1000
      RMK 1ST006 3ST009 5ST010 A2956

午後8時 南西風12メートル 強風時17メートル 曇り 気温22度 露点19度 雲底高度300メートル




171400Z 20020G36KT 9999 SCT012 BKN050 21/18 Q0998

午後11時 南西風10メートル強風時18メートル 曇り 気温21度 露点18度



ブログランキングに参加しています。
にほんブログ村 環境ブログ 天気・気象学へ
にほんブログ村
応援クリックをおねがします。


以下、アフィリエイトサイトです。






23:50  |  気象・天気  |  TB(0)  |  CM(0)  |  EDIT  |  Top↑

2009.05.16 (Sat)

梅雨前線 東進中

ASAS16MAY0906Z.jpg

ASAS 16日午後3時


ASAS16MAY0906Z拡大
ASAS 16日午後3時 拡大



今日の天気図を見ていると、なんだか梅雨の訪れが近いように感じました。


上層の風の流れ、雲の様子、気温と湿度。。。


雨季がもうそこまで。



<梅雨入り>全国的に平年並み、関東甲信は6月8日
5月14日19時13分配信 毎日新聞


 民間気象会社「ウェザーニューズ」(東京都港区)は14日、今年の梅雨の見通しを発表した。梅雨入りの時期は沖縄・奄美を除いて全国的に平年並みとなり、梅雨終盤の7月上~中旬は全国的に大雨となるが、梅雨明けは平年より1週間程度早まる地域が多いという。

 各地域の梅雨入り時期は▽東北6月9~11日(昨年は6月22~23日)▽北陸6月9日(6月19日)▽関東甲信6月8日(5月29日)▽東海6月8日(5月28日)▽近畿・中国6月6日(5月28日)▽四国・九州北部6月5日(5月28日)▽九州南部5月26日(5月28日)▽沖縄・奄美5月18日(5月22日)。



ブログランキングに参加しています。
にほんブログ村 環境ブログ 天気・気象学へ
にほんブログ村
応援クリックをおねがします。


以下、アフィリエイトサイトです。






22:41  |  時事  |  TB(0)  |  CM(0)  |  EDIT  |  Top↑

2009.05.15 (Fri)

かすみちゃんとおぼろちゃん

 春といえば霞(かすみ)、霞(かすみ)といえば春。

視程障害の気象用語に霧と靄(もや)、煙霧などがありますが、霞や朧は気象用語ではありません。


霧と靄の違いは
  視程が1km未満の煙や砂に関係しない現象を霧
  視程が1km以上5km以下は靄(もや)



赤い月



 春になると、山や太陽などの遠くにあるものが霞んで見える現象、霞(かすみ)が起こります。
薄い層雲、霧・もや、煙霧などを通して見た場合によく起こります。


 また、春先に草やもみを田畑で焼いた際に出る煙が、地表付近に近い逆転層のために樹木の高さ程度にたなびく様子を「霞たなびく」と言います。



朧月




 なお、月夜に月がぼんやり見えることを朧月(おぼろづき)、夜の霞を朧(おぼろ)とよび、この時期の月の出・月入りの時の月は真っ赤にか輝きやすくなります。光学現象のひとつです。


 なお、歳時記によると、霧は秋の季語で、春の霧を霞(かすみ)と呼び、夜の霧を朧(おぼろ)と呼び、それぞれ春の季語です。



以下、アフィリエイトサイトです。





ブログランキングに参加しています。
にほんブログ村 環境ブログ 天気・気象学へ
にほんブログ村
応援クリックをおねがします。


以下、アフィリエイトサイトです。






10:45  |  気象・天気  |  TB(0)  |  CM(0)  |  EDIT  |  Top↑

2009.05.14 (Thu)

竜巻注意報?

昨日から、日本上空には寒気が流入しています。

夕方にはところどころでにわか雨が降ったかもしれません。

会社から外を眺め見ると、あやしげな雲が漂っているのを見ました。

かと思えば、こんな注意報が出ていたんですね。


茨城県鹿行・県南・県西で竜巻発生の恐れ…気象庁注意情報
5月14日16時17分配信 読売新聞

 気象庁は14日、茨城県鹿行、県南、県西地域で竜巻が発生するおそれがあると発表した。

 雷や風が急変するなど積乱雲が近づく兆しがある場合には、安全確保に努めるよう呼びかけている。

 注意情報は午後5時40分まで有効。



ブログランキングに参加しています。
にほんブログ村 環境ブログ 天気・気象学へ
にほんブログ村
応援クリックをおねがします。


以下、アフィリエイトサイトです。






23:28  |  時事  |  TB(0)  |  CM(0)  |  EDIT  |  Top↑

2009.05.13 (Wed)

にわか雨

 ここ数日天気がぱっとしないですね。春霞でしょうか?


関東地方の天気

一昨日
 北東風の影響で、全国各地で夏日を記録する中、20度前後、さらに視程は悪く、薄い低い雲に
覆われていました。


昨日
 霞がかったような天気が続き、夜には雨が降りはじめました。


今日
 寒冷前線が通過し、早朝には雨がやんだにも関わらず、視程は悪いまま。

午後から夕方にかけてにわか雨が降り、洗濯物を濡らした家庭も多いのではないでしょうか?

羽田空港のMETAR
122230Z 02003KT 2700 BR FEW009 SCT050 BKN100 20/18 Q1001 RMK 1ST009 3SC050 5AC100 A2958
早朝 視程2700m 気温20度

122300Z VRB02KT 3000 BR SCT011 BKN140 21/18 Q1001
       RMK 4CU011 7AC140 A2958
122330Z 10003KT 3200 BR FEW011 BKN140 21/18 Q1001
       RMK 1ST011 7AC140 A2958
130000Z 11003KT 3200 BR FEW011 BKN140 21/19 Q1001
       RMK 1ST011 7AC140 A2958
130030Z 13005KT 3200 BR FEW015 BKN100 21/18 Q1001
       RMK 1CU015 7AC100 A2959
130100Z 14007KT 3000 BR FEW015 BKN100 22/19 Q1001
       RMK 1CU015 7AC100 A2958
130130Z 13007KT 3000 BR FEW015 BKN100 22/19 Q1001
       RMK 1CU015 7AC100 A2958
       MOD TURB BTN 15000 AND 12000FT 2NM S AMI BY A300 AT 0120
130200Z 13007KT 3000 BR NSC 23/19 Q1001
       RMK 1AC070 7AC100 A2957
130230Z 16010KT 3000 HZ FEW050 BKN100 23/18 Q1001
       RMK 1SC050 7AC100 A2956
130300Z 17011KT 3500 HZ FEW030 BKN070 23/17 Q1000
       RMK 1CU030 7AC070 A2956


昼過ぎまで視程悪く、気温は23度(正午)



130330Z 14006KT 120V190 6000 -SHRA BR FEW030 BKN070 22/18 Q1000
       RMK 1CU030 7AC070 A2954
       MOD TURB 13000FT OVER MORIYA BY B767 AT 0329 BR E
130400Z 13003KT 110V180 5000 -SHRA BR FEW025 BKN035 BKN050
       21/18 Q1000
       RMK 1CU025 5CU035 7SC050 A2955

にわか雨により、視程が5,6kmまで回復。


 また、羽田空港にはプーチン首相を乗せたロシア政府専用機が離陸したようで、慣れない羽田空港で、しかも視程不良、苦労されたのではないでしょうか?



 下図は、FXJP854です。
関東地方になにやらありそうですね。渦を巻いており、湾曲し、収束しています。すなわち、低気圧を意味しています。これが通過したために、にわか雨が降ったのです。

13MAY0900ZT12.jpg
FXJP854 13日午前09時基準 午後9時予想


ブログランキングに参加しています。
にほんブログ村 環境ブログ 天気・気象学へ
にほんブログ村
応援クリックをおねがします。


以下、アフィリエイトサイトです。






23:37  |  時事  |  TB(0)  |  CM(0)  |  EDIT  |  Top↑

2009.05.12 (Tue)

ラニーニャねぇ

ラニーニャ現象が終息=日本に影響みられず-気象庁
5月12日15時28分配信 時事通信


 気象庁は12日、太平洋赤道域の中央部から南米沖にかけての海面水温が平年より低くなる「ラニーニャ現象」が終息したとみられると発表した。同現象は1月上旬ごろ発生したとみられ、日本が冬の場合は西日本の気温が低くなるのが典型的傾向だが、今回は直接の影響がみられず、暖かかった。
 今夏は、ラニーニャ現象や、反対に同海域の水温が平年より高くなるエルニーニョ現象が発生する可能性は低いという。 


ブログランキングに参加しています。
にほんブログ村 環境ブログ 天気・気象学へ
にほんブログ村
応援クリックをおねがします。


以下、アフィリエイトサイトです。






23:05  |  時事  |  TB(0)  |  CM(0)  |  EDIT  |  Top↑

2009.05.11 (Mon)

おっとっとっと 夏だぜ

 大子には、VOR(航空路の案内用無線局)があり、この近辺はよくCB(積乱雲)が発生します。


茨城で今年初の真夏日 大子は観測史上最高
5月11日7時57分配信 産経新聞


 全国的に真夏並みの気温となった10日、茨城県内でも5カ所で最高気温30度以上の「真夏日」を今年初めて記録した。昨年より3日遅い。大子では5月としては観測史上最も高い33・3度を記録した。

 水戸地方気象台によると、真夏日となったのは大子のほか、古河(31・5度)、笠間(30・4度)、下館(30・2度)、小瀬(30・0度)。水戸でも27・8度まで上昇した。

 同気象台の予報では、11日以降も引き続き晴れるところが多いものの、気温は平年並みに落ち着く見込み。

 一方、県は10日、古河地域(古河市、五霞町、境町)に、今年初の光化学スモッグ注意報を発令。結城市など11市町の西部地域にも予報を発令した。


ブログランキングに参加しています。
にほんブログ村 環境ブログ 天気・気象学へ
にほんブログ村
応援クリックをおねがします。


以下、アフィリエイトサイトです。






19:27  |  時事  |  TB(0)  |  CM(0)  |  EDIT  |  Top↑

2009.05.10 (Sun)

各地で夏日 30度越え

 北日本を除いて各地で暑い一日でしたね。


7時のNHKのニュースでも取り上げられていました。
真っ赤っかです。
北海道の釧路では最後の桜の開花のニュースもありました。


夏日NHK


 立夏を過ぎて、夏へまっしぐらです。やせなくちゃ。。。



記事にある米良って、あの「もののけ姫」の歌手の出身地だったような???



各地で真夏日=群馬、宮崎で33.9度
5月10日18時32分配信 時事通信

日本列島は10日、全国的に高気圧に覆われて気温が上昇。各地で5月の観測史上最高を記録するなど、最高気温が30度以上の真夏日となった。
 気象庁によると、同日の全国最高気温は、群馬県中之条町と宮崎県西米良村の33.9度。茨城県大子町、広島県安芸太田町、長野県飯田市などでも33度を超え、5月最高を更新した。
 都心部でも、東京都練馬区で31.3度、名古屋市で30.6度など、7月ごろの陽気となった。 



ブログランキングに参加しています。
にほんブログ村 環境ブログ 天気・気象学へ
にほんブログ村
応援クリックをおねがします。


以下、アフィリエイトサイトです。






19:37  |  時事  |  TB(0)  |  CM(0)  |  EDIT  |  Top↑

2009.05.09 (Sat)

エコの影に陰謀あり

 北極南極の氷が減少しているというニュースはよく聞きます。

 TVでは、ペンギンと白熊を使って、まるで自分たちの住む場所がなくなるかのような印象を植え付け、エコ商品を買いなさいという流れになるCMが流れています。


 砂漠化や氷河や極の氷の減少は本当に起こっているのか?いろいろな観測結果、研究結果があるにも関わらず、こぞって「地球が危ない」の大合唱。

それは、自分たちでよく考え判断していくしかありません。もちろん、私も地球に優しく生きて生きたいと考えてはいます。


 結局、環境問題も経済の中に取り込まれ、金次第です。

エコを考えるなら、新規購入する前に見直すものはたくさんあります。

 

でも、そうではない。これが、今の現実です。




オホーツク海氷面積、最小見込み=冬型気圧配置続かず-気象庁
5月8日17時58分配信 時事通信


 オホーツク海の海氷域面積が、今シーズン(昨年12月から今年5月)は、1971年の統計開始以来、最小になる見込みとなった。気象庁が8日発表した積算海氷域面積(5日ごとに観測した合計)が、今年4月末時点で1541万平方キロと、平年の63%にとどまり、過去最小だった2005~06年シーズンの4月末時点の1544万平方キロを下回った。

 一方、オホーツク海沿岸の北海道・網走では、46年の統計開始以来、最も早い3月17日に流氷が見えなくなった。最初に見えてから見えなくなるまでの期間は43日と、最短だった90~91年シーズンに並んだ。

 気象庁海洋気象情報室によると、オホーツク海の海氷域面積は長期的に緩やかに減少しており、地球温暖化の表れかどうかを研究中だが、年ごとの変動も大きい。今シーズンは西高東低の冬型気圧配置が長続きしなかったため、大陸からの寒気の流入が弱く、北寄りの風も続かなかった。北海道沿岸の流氷は、特に風の影響が大きいという。 


ブログランキングに参加しています。
にほんブログ村 環境ブログ 天気・気象学へ
にほんブログ村
応援クリックをおねがします。


以下、アフィリエイトサイトです。
おすすめメンズ






13:06  |  時事  |  TB(0)  |  CM(0)  |  EDIT  |  Top↑

2009.05.08 (Fri)

虹で光学に興味をもつ

 関東を通り抜けた雨雲は、一部に激しい雨を降らせて生きましたね。

夕方の雨上がりには虹が見える条件が揃い、完全なアーチ型の虹が見られたところもあるようです。


虹


 午後5時過ぎに上空を覆う雨雲が東へ流れ、晴れた西から夕日が差し、大きく弧を描いた虹が出現し、その外側に二重の虹もみられたようです。

 これを主虹に対し、副虹と呼び、虹の色の見え方が内側が紫で外が赤に対し、その逆の並びとなります。

 また、水滴が大きいほど鮮やかな虹となり、霧雨のなかでは色は分かれず、白くぼんやりとした光の帯になります。これを霧虹とか白虹と呼びます。



 虹を勉強することは光学の勉強にもなり、気象予報士の勉強にもつながります。

興味のある方は、深く掘り下げてみると面白いですよ。


ブログランキングに参加しています。
にほんブログ村 環境ブログ 天気・気象学へ
にほんブログ村
応援クリックをおねがします。


以下、アフィリエイトサイトです。






23:45  |  時事  |  TB(0)  |  CM(0)  |  EDIT  |  Top↑

2009.05.07 (Thu)

台風と海水温

 台風1号が小笠原諸島に接近しています。


台風位置07MAY09


 台風1号から本土に上陸したことはありませんが、小笠原諸島に接近したのは過去15年で4回あり、今回で5回目となります。

04年4月15日ころ(970~975hPa)
00年5月11日ころ(970~975hPa)
99年4月27日ころ(980hPa)
97年4月22日ころ(975~980hPa)
()内は最接近時の勢力。


 特に珍しいことではないようです。


台風1号09


 さて、本日午前9時ごろには、台風1号は北緯26度、東経144度くらいに位置しています。

 台風の発達におおいに関係しているのが、海水温です。28度以上が発達の目安です。台風の元は、蒸発する水蒸気によってできる対流性の雲です。


 ちょっと古いのですが、5日付けの海水温ですが、下図はCQPQ1を用いて説明します。


CQPQ1海水温5MAY09
CQPQ1 05MAY09


×印が本日の午前9時頃の位置を表しています。

 その周辺の海水温は22-23度くらいなので、もう発達はありません。


あとは、上空の寒気と重なって、温帯低気圧として再発達するかどうかでしょう。


 しかし、まだまだ油断禁物ですが。。。



ブログランキングに参加しています。
にほんブログ村 環境ブログ 天気・気象学へ
にほんブログ村
応援クリックをおねがします。


以下、アフィリエイトサイトです。






12:22  |  時事  |  TB(0)  |  CM(0)  |  EDIT  |  Top↑

2009.05.06 (Wed)

台風接近

 いきなり一号目から、日本に接近しましたね。本土に近づいたわけではないので、特に珍しいものではないのですが、、、


<台風1号>
7日に小笠原諸島へ接近、荒れた天気に 気象庁

5月6日16時54分配信 毎日新聞


 強い台風1号は6日午後3時現在、日本の南海上を時速約35キロで北東へ進んでいる。気象庁は同日午後、伊豆諸島北部、三宅島に波浪注意報、小笠原諸島に波浪・濃霧注意報を出した。

 気象庁によると中心気圧は960ヘクトパスカル、中心付近の最大風速は35メートル、最大瞬間風速は50メートル。中心から半径90キロ以内では風速25メートル以上の暴風となっている。また、中心から半径220キロ以内では風速15メートル以上の強い風が吹いている。

 台風の中心は7日午後3時には小笠原諸島に接近、8日午後には日本の東海上で温帯低気圧となる見通し。


ブログランキングに参加しています。
にほんブログ村 環境ブログ 天気・気象学へ
にほんブログ村
応援クリックをおねがします。


以下、アフィリエイトサイトです。






23:07  |  時事  |  TB(0)  |  CM(0)  |  EDIT  |  Top↑

2009.05.05 (Tue)

立夏

立夏(りっか)

 二十四節気のひとつで例年5月6日ごろになり、この日から小満までの期間にあたります。


太陽黄径


 太陽黄経は45度。



 暦便覧には「夏の立つがゆへなり」と記され、夏の気配が感じられ始める四月節です。


 春分と夏至の中間にあたり、昼夜の長短を基準に季節を区分すると、この日から立秋の前日までが夏となります。

 田には水が引かれ、水田となり、かえるの大合唱が聞こえ始めるころでもあります。


トノサマガエル




立夏の期間の七十二候は以下の通り。

初候
蛙始鳴     (かえる はじめて なく)
          蛙が鳴き始める(日本)
螻蝈鳴     (ろうこく なく)
          雨蛙が鳴き始める(中国)


次候
蚯蚓出     (きゅういん いずる)
          蚯蚓(ミミズ)が地上に這出る(日本・中国)

末候
竹笋生     (ちくかん しょうず)
          筍が生えて来る(日本)
王瓜生     (おうか しょうず)
          王瓜(カラスウリ)の実が生り始める(中国)





ブログランキングに参加しています。
にほんブログ村 環境ブログ 天気・気象学へ
にほんブログ村
応援クリックをおねがします。


以下、アフィリエイトサイトです。






22:17  |  二十四節気  |  TB(0)  |  CM(0)  |  EDIT  |  Top↑

2009.05.04 (Mon)

台風2号

 もう一発、発生しました。チャンホンです。


台風2号09


台風第2号 (チャンホン)
平成21年05月04日12時55分 発表
<04日12時の実況>
大きさ -
強さ -
存在地域 南シナ海
中心位置 北緯 10度40分(10.7度)
東経 112度25分(112.4度)
進行方向、速さ 北北東 ゆっくり
中心気圧 996hPa
中心付近の最大風速 18m/s(35kt)
最大瞬間風速 25m/s(50kt)
15m/s以上の強風域 北西側 330km(180NM)
南東側 220km(120NM)

 次号は「リンファ」です。


ブログランキングに参加しています。
にほんブログ村 環境ブログ 天気・気象学へ
にほんブログ村
応援クリックをおねがします。


以下、アフィリエイトサイトです。






13:41  |  気象・天気  |  TB(0)  |  CM(0)  |  EDIT  |  Top↑

2009.05.03 (Sun)

クジラ 1号 上陸するのか?

 気象庁が台風情報を発表しました。

 フィリピンの東で熱帯低気圧が同日午前9時に台風1号になり、ゆっくりした速さで北北東の海上へ進んでいるということです。

 このクジラは上陸するのでしょうか?クジラ12号ってなんかありませんでしたか???


台風第1号 (クジラ)
平成21年05月03日15時40分 発表
<03日15時の実況>
大きさ -
強さ -
存在地域 フィリピンの東
中心位置 北緯 13度55分(13.9度)
東経 125度00分(125.0度)
進行方向、速さ 北東 ゆっくり
中心気圧 990hPa
中心付近の最大風速 23m/s(45kt)
最大瞬間風速 35m/s(65kt)
15m/s以上の強風域 全域 190km(100NM)


 日本が担当する台風の名前は夜空の星座です。ロマンを感じます。


 次の台風は「チャンホン」、チェホンマンではありません。



ブログランキングに参加しています。
にほんブログ村 環境ブログ 天気・気象学へ
にほんブログ村
応援クリックをおねがします。


以下、アフィリエイトサイトです。






23:59  |  時事  |  TB(0)  |  CM(0)  |  EDIT  |  Top↑

2009.05.02 (Sat)

切離低気圧

 日本は五月晴れとなり、1日2日ともに非常によいお天気でした。

青空


 ニュースでは値下げされた高速道路の渋滞の件と、国内航空便の混雑振りの件を報道していました。

 そんな穏やかな地上の天気と裏腹に、上空には切離低気圧が忍び込んでいました。

30050001MAY0912Z.jpg
1日午後9時 300/500hpa 高層天気図


300h01MAY0912Z.jpg
1日午後9時 300hpa 高層天気図 拡大図


500h01MAY0912Z.jpg
1日午後9時 500hpa 高層天気図 拡大図



 300hpa、500hpa高層天気図をそれぞれを見てみると、紀伊半島の南に低圧部と寒気が見て取れます。

 その渦に向かって低気圧性の風、反時計回りの風の場ができています。関東以西から九州にかけて東風となっていることがわかると思います。

300hpa面はおおよそ高度9000m、30000ft。
500hpa面はおおよそ高度5500m、18000ft。

 実際に下図のエマグラムでも30000-25000ftあたりで、東風の場になっています。


エマグラム浜松01MAY0912Z
1日午後9時 エマグラム 浜松


エマグラム浜松02MAY0900Z
2日午前9時 エマグラム 浜松


 特に30000-33000には大きなシアーとなっています。風向が逆向きというのは大きなシアーになります。

おそらくこの高度で揺れがあったのではないでしょうか。

 航空気象は地上に住んでいるだけでは、本当にわからないものです。



ブログランキングに参加しています。
にほんブログ村 環境ブログ 天気・気象学へ
にほんブログ村
応援クリックをおねがします。


以下、アフィリエイトサイトです。





21:37  |  気象・天気  |  TB(0)  |  CM(0)  |  EDIT  |  Top↑
 | BLOGTOP |  NEXT